sensor_id;sensor_type;location;lat;lon;timestamp;P1;durP1;ratioP1;P2;durP2;ratioP2
36189;SDS011;22232;50.914;13.858;2023-02-14T00:01:21;47.25;;;20.48;;
36189;SDS011;22232;50.914;13.858;2023-02-14T00:03:49;42.95;;;19.13;;
36189;SDS011;22232;50.914;13.858;2023-02-14T00:06:16;50.17;;;20.20;;
36189;SDS011;22232;50.914;13.858;2023-02-14T00:08:44;46.90;;;20.75;;
36189;SDS011;22232;50.914;13.858;2023-02-14T00:11:12;45.10;;;19.30;;
36189;SDS011;22232;50.914;13.858;2023-02-14T00:13:40;48.97;;;20.00;;
36189;SDS011;22232;50.914;13.858;2023-02-14T00:16:27;49.97;;;20.13;;
36189;SDS011;22232;50.914;13.858;2023-02-14T00:18:55;47.67;;;20.30;;
36189;SDS011;22232;50.914;13.858;2023-02-14T00:21:33;53.10;;;23.13;;
36189;SDS011;22232;50.914;13.858;2023-02-14T00:24:03;45.88;;;20.73;;
36189;SDS011;22232;50.914;13.858;2023-02-14T00:26:51;45.17;;;20.25;;
36189;SDS011;22232;50.914;13.858;2023-02-14T00:29:21;52.35;;;23.33;;
36189;SDS011;22232;50.914;13.858;2023-02-14T00:31:50;48.00;;;20.30;;
36189;SDS011;22232;50.914;13.858;2023-02-14T00:34:18;51.70;;;22.73;;
36189;SDS011;22232;50.914;13.858;2023-02-14T00:36:46;51.58;;;22.30;;
36189;SDS011;22232;50.914;13.858;2023-02-14T00:39:16;44.13;;;20.17;;
36189;SDS011;22232;50.914;13.858;2023-02-14T00:41:44;47.72;;;21.58;;
36189;SDS011;22232;50.914;13.858;2023-02-14T00:44:13;41.72;;;19.70;;
36189;SDS011;22232;50.914;13.858;2023-02-14T00:46:40;45.58;;;19.75;;
36189;SDS011;22232;50.914;13.858;2023-02-14T00:49:08;44.88;;;20.40;;
36189;SDS011;22232;50.914;13.858;2023-02-14T00:51:37;45.65;;;20.77;;
36189;SDS011;22232;50.914;13.858;2023-02-14T00:54:05;54.40;;;21.85;;
36189;SDS011;22232;50.914;13.858;2023-02-14T00:56:33;42.75;;;19.48;;
36189;SDS011;22232;50.914;13.858;2023-02-14T00:59:00;50.47;;;21.30;;
36189;SDS011;22232;50.914;13.858;2023-02-14T01:01:28;42.60;;;20.33;;
36189;SDS011;22232;50.914;13.858;2023-02-14T01:03:55;39.28;;;18.42;;
36189;SDS011;22232;50.914;13.858;2023-02-14T01:06:25;36.28;;;18.45;;
36189;SDS011;22232;50.914;13.858;2023-02-14T01:08:52;39.85;;;18.80;;
36189;SDS011;22232;50.914;13.858;2023-02-14T01:11:21;35.40;;;17.52;;
36189;SDS011;22232;50.914;13.858;2023-02-14T01:13:53;35.35;;;17.65;;
36189;SDS011;22232;50.914;13.858;2023-02-14T01:16:23;43.45;;;20.27;;
36189;SDS011;22232;50.914;13.858;2023-02-14T01:18:54;42.45;;;19.70;;
36189;SDS011;22232;50.914;13.858;2023-02-14T01:21:26;46.35;;;20.58;;
36189;SDS011;22232;50.914;13.858;2023-02-14T01:23:56;42.83;;;18.80;;
36189;SDS011;22232;50.914;13.858;2023-02-14T01:26:26;43.58;;;19.50;;
36189;SDS011;22232;50.914;13.858;2023-02-14T01:28:54;45.15;;;21.02;;
36189;SDS011;22232;50.914;13.858;2023-02-14T01:31:25;40.25;;;19.30;;
36189;SDS011;22232;50.914;13.858;2023-02-14T01:33:56;46.20;;;19.38;;
36189;SDS011;22232;50.914;13.858;2023-02-14T01:36:31;42.08;;;19.80;;
36189;SDS011;22232;50.914;13.858;2023-02-14T01:39:04;44.67;;;20.08;;
36189;SDS011;22232;50.914;13.858;2023-02-14T01:41:34;48.45;;;20.45;;
36189;SDS011;22232;50.914;13.858;2023-02-14T01:46:45;37.60;;;17.25;;
36189;SDS011;22232;50.914;13.858;2023-02-14T01:49:16;40.85;;;18.58;;
36189;SDS011;22232;50.914;13.858;2023-02-14T01:54:30;37.95;;;17.50;;
36189;SDS011;22232;50.914;13.858;2023-02-14T01:57:01;38.63;;;17.40;;
36189;SDS011;22232;50.914;13.858;2023-02-14T01:59:35;37.60;;;17.50;;
36189;SDS011;22232;50.914;13.858;2023-02-14T02:02:08;36.58;;;16.67;;
36189;SDS011;22232;50.914;13.858;2023-02-14T02:04:38;34.08;;;16.38;;
36189;SDS011;22232;50.914;13.858;2023-02-14T02:07:11;34.35;;;16.98;;
36189;SDS011;22232;50.914;13.858;2023-02-14T02:09:45;41.15;;;18.45;;
36189;SDS011;22232;50.914;13.858;2023-02-14T02:12:25;39.28;;;18.98;;
36189;SDS011;22232;50.914;13.858;2023-02-14T02:14:57;42.45;;;20.23;;
36189;SDS011;22232;50.914;13.858;2023-02-14T02:37:01;29.05;;;13.43;;
36189;SDS011;22232;50.914;13.858;2023-02-14T02:48:04;28.95;;;14.52;;
36189;SDS011;22232;50.914;13.858;2023-02-14T02:53:42;29.10;;;14.82;;
36189;SDS011;22232;50.914;13.858;2023-02-14T02:56:34;25.52;;;13.18;;
36189;SDS011;22232;50.914;13.858;2023-02-14T02:59:20;27.98;;;13.35;;
36189;SDS011;22232;50.914;13.858;2023-02-14T03:04:32;20.92;;;12.07;;
36189;SDS011;22232;50.914;13.858;2023-02-14T03:07:30;21.80;;;11.70;;
36189;SDS011;22232;50.914;13.858;2023-02-14T03:10:11;23.60;;;12.20;;
36189;SDS011;22232;50.914;13.858;2023-02-14T03:15:46;24.33;;;12.35;;
36189;SDS011;22232;50.914;13.858;2023-02-14T03:34:50;20.35;;;11.40;;
36189;SDS011;22232;50.914;13.858;2023-02-14T03:37:38;20.88;;;11.20;;
36189;SDS011;22232;50.914;13.858;2023-02-14T03:40:17;23.45;;;11.98;;
36189;SDS011;22232;50.914;13.858;2023-02-14T03:42:53;21.40;;;11.63;;
36189;SDS011;22232;50.914;13.858;2023-02-14T03:45:29;24.63;;;12.68;;
36189;SDS011;22232;50.914;13.858;2023-02-14T03:48:07;20.83;;;12.00;;
36189;SDS011;22232;50.914;13.858;2023-02-14T03:50:39;22.13;;;11.85;;
36189;SDS011;22232;50.914;13.858;2023-02-14T03:53:10;25.33;;;12.73;;
36189;SDS011;22232;50.914;13.858;2023-02-14T03:59:14;22.35;;;11.70;;
36189;SDS011;22232;50.914;13.858;2023-02-14T04:04:24;22.52;;;11.82;;
36189;SDS011;22232;50.914;13.858;2023-02-14T04:06:56;25.08;;;12.80;;
36189;SDS011;22232;50.914;13.858;2023-02-14T04:09:24;26.38;;;13.82;;
36189;SDS011;22232;50.914;13.858;2023-02-14T04:11:51;22.48;;;12.18;;
36189;SDS011;22232;50.914;13.858;2023-02-14T04:14:19;25.10;;;12.45;;
36189;SDS011;22232;50.914;13.858;2023-02-14T04:16:46;25.08;;;12.82;;
36189;SDS011;22232;50.914;13.858;2023-02-14T04:19:32;25.10;;;12.93;;
36189;SDS011;22232;50.914;13.858;2023-02-14T04:22:00;25.35;;;13.30;;
36189;SDS011;22232;50.914;13.858;2023-02-14T04:24:27;26.50;;;13.60;;
36189;SDS011;22232;50.914;13.858;2023-02-14T04:26:55;28.63;;;14.07;;
36189;SDS011;22232;50.914;13.858;2023-02-14T04:29:45;29.00;;;14.13;;
36189;SDS011;22232;50.914;13.858;2023-02-14T04:32:15;26.27;;;12.82;;
36189;SDS011;22232;50.914;13.858;2023-02-14T04:34:45;36.25;;;17.15;;
36189;SDS011;22232;50.914;13.858;2023-02-14T04:37:13;30.20;;;14.75;;
36189;SDS011;22232;50.914;13.858;2023-02-14T04:39:42;28.73;;;15.07;;
36189;SDS011;22232;50.914;13.858;2023-02-14T04:42:10;30.67;;;15.18;;
36189;SDS011;22232;50.914;13.858;2023-02-14T04:44:37;29.98;;;15.23;;
36189;SDS011;22232;50.914;13.858;2023-02-14T04:47:05;30.65;;;14.32;;
36189;SDS011;22232;50.914;13.858;2023-02-14T04:49:34;26.40;;;13.52;;
36189;SDS011;22232;50.914;13.858;2023-02-14T04:52:02;32.28;;;16.13;;
36189;SDS011;22232;50.914;13.858;2023-02-14T04:54:31;30.23;;;14.32;;
36189;SDS011;22232;50.914;13.858;2023-02-14T04:56:58;28.08;;;14.10;;
36189;SDS011;22232;50.914;13.858;2023-02-14T04:59:26;28.05;;;13.00;;
36189;SDS011;22232;50.914;13.858;2023-02-14T05:01:53;29.88;;;14.00;;
36189;SDS011;22232;50.914;13.858;2023-02-14T05:04:21;28.25;;;13.48;;
36189;SDS011;22232;50.914;13.858;2023-02-14T05:06:49;27.92;;;13.45;;
36189;SDS011;22232;50.914;13.858;2023-02-14T05:09:16;30.45;;;15.43;;
36189;SDS011;22232;50.914;13.858;2023-02-14T05:11:44;34.75;;;14.70;;
36189;SDS011;22232;50.914;13.858;2023-02-14T05:14:11;33.50;;;17.02;;
36189;SDS011;22232;50.914;13.858;2023-02-14T05:16:39;34.60;;;16.10;;
36189;SDS011;22232;50.914;13.858;2023-02-14T05:19:07;32.67;;;15.68;;
36189;SDS011;22232;50.914;13.858;2023-02-14T05:21:35;31.08;;;15.68;;
36189;SDS011;22232;50.914;13.858;2023-02-14T05:24:02;29.63;;;14.95;;
36189;SDS011;22232;50.914;13.858;2023-02-14T05:26:30;37.47;;;17.98;;
36189;SDS011;22232;50.914;13.858;2023-02-14T05:28:58;35.42;;;17.60;;
36189;SDS011;22232;50.914;13.858;2023-02-14T05:31:25;36.28;;;16.95;;
36189;SDS011;22232;50.914;13.858;2023-02-14T05:33:53;34.08;;;16.48;;
36189;SDS011;22232;50.914;13.858;2023-02-14T05:36:20;41.30;;;18.52;;
36189;SDS011;22232;50.914;13.858;2023-02-14T05:38:48;39.15;;;17.88;;
36189;SDS011;22232;50.914;13.858;2023-02-14T05:41:15;34.53;;;17.38;;
36189;SDS011;22232;50.914;13.858;2023-02-14T05:43:43;38.83;;;18.15;;
36189;SDS011;22232;50.914;13.858;2023-02-14T05:50:23;35.50;;;17.33;;
36189;SDS011;22232;50.914;13.858;2023-02-14T05:52:53;39.30;;;19.10;;
36189;SDS011;22232;50.914;13.858;2023-02-14T05:55:21;38.65;;;19.15;;
36189;SDS011;22232;50.914;13.858;2023-02-14T05:57:48;35.08;;;16.42;;
36189;SDS011;22232;50.914;13.858;2023-02-14T06:00:16;35.08;;;17.13;;
36189;SDS011;22232;50.914;13.858;2023-02-14T06:02:45;34.03;;;16.77;;
36189;SDS011;22232;50.914;13.858;2023-02-14T06:05:12;32.60;;;15.20;;
36189;SDS011;22232;50.914;13.858;2023-02-14T06:07:41;29.95;;;14.68;;
36189;SDS011;22232;50.914;13.858;2023-02-14T06:10:09;26.33;;;13.85;;
36189;SDS011;22232;50.914;13.858;2023-02-14T06:12:37;27.65;;;13.60;;
36189;SDS011;22232;50.914;13.858;2023-02-14T06:15:04;24.27;;;13.30;;
36189;SDS011;22232;50.914;13.858;2023-02-14T06:17:32;25.23;;;12.85;;
36189;SDS011;22232;50.914;13.858;2023-02-14T06:20:00;24.38;;;12.57;;
36189;SDS011;22232;50.914;13.858;2023-02-14T06:22:27;20.73;;;11.65;;
36189;SDS011;22232;50.914;13.858;2023-02-14T06:24:56;22.85;;;11.82;;
36189;SDS011;22232;50.914;13.858;2023-02-14T06:27:24;24.65;;;12.18;;
36189;SDS011;22232;50.914;13.858;2023-02-14T06:29:51;24.83;;;12.27;;
36189;SDS011;22232;50.914;13.858;2023-02-14T06:32:19;25.85;;;13.32;;
36189;SDS011;22232;50.914;13.858;2023-02-14T06:34:46;24.13;;;12.15;;
36189;SDS011;22232;50.914;13.858;2023-02-14T06:37:14;27.60;;;13.43;;
36189;SDS011;22232;50.914;13.858;2023-02-14T06:39:41;27.00;;;13.63;;
36189;SDS011;22232;50.914;13.858;2023-02-14T06:42:09;26.58;;;12.82;;
36189;SDS011;22232;50.914;13.858;2023-02-14T06:44:36;25.00;;;12.45;;
36189;SDS011;22232;50.914;13.858;2023-02-14T06:47:04;22.88;;;12.73;;
36189;SDS011;22232;50.914;13.858;2023-02-14T06:49:32;24.90;;;12.45;;
36189;SDS011;22232;50.914;13.858;2023-02-14T06:51:59;28.80;;;13.38;;
36189;SDS011;22232;50.914;13.858;2023-02-14T06:54:26;21.38;;;12.25;;
36189;SDS011;22232;50.914;13.858;2023-02-14T06:56:54;21.75;;;11.40;;
36189;SDS011;22232;50.914;13.858;2023-02-14T06:59:21;21.35;;;11.15;;
36189;SDS011;22232;50.914;13.858;2023-02-14T07:01:49;22.95;;;12.02;;
36189;SDS011;22232;50.914;13.858;2023-02-14T07:04:17;23.23;;;11.52;;
36189;SDS011;22232;50.914;13.858;2023-02-14T07:06:44;22.27;;;11.70;;
36189;SDS011;22232;50.914;13.858;2023-02-14T07:09:12;26.45;;;13.63;;
36189;SDS011;22232;50.914;13.858;2023-02-14T07:11:44;25.50;;;12.32;;
36189;SDS011;22232;50.914;13.858;2023-02-14T07:14:12;24.85;;;13.57;;
36189;SDS011;22232;50.914;13.858;2023-02-14T07:16:40;22.67;;;12.20;;
36189;SDS011;22232;50.914;13.858;2023-02-14T07:19:07;22.85;;;11.93;;
36189;SDS011;22232;50.914;13.858;2023-02-14T07:21:35;20.40;;;10.73;;
36189;SDS011;22232;50.914;13.858;2023-02-14T07:24:02;22.98;;;12.32;;
36189;SDS011;22232;50.914;13.858;2023-02-14T07:26:30;25.05;;;11.90;;
36189;SDS011;22232;50.914;13.858;2023-02-14T07:28:57;24.95;;;11.57;;
36189;SDS011;22232;50.914;13.858;2023-02-14T07:31:25;24.75;;;11.80;;
36189;SDS011;22232;50.914;13.858;2023-02-14T07:33:52;24.35;;;12.23;;
36189;SDS011;22232;50.914;13.858;2023-02-14T07:36:20;26.00;;;13.20;;
36189;SDS011;22232;50.914;13.858;2023-02-14T07:38:47;23.90;;;11.27;;
36189;SDS011;22232;50.914;13.858;2023-02-14T07:41:15;24.27;;;12.23;;
36189;SDS011;22232;50.914;13.858;2023-02-14T07:43:42;22.92;;;11.55;;
36189;SDS011;22232;50.914;13.858;2023-02-14T07:46:10;23.50;;;12.27;;
36189;SDS011;22232;50.914;13.858;2023-02-14T07:48:38;20.83;;;11.73;;
36189;SDS011;22232;50.914;13.858;2023-02-14T07:51:05;26.65;;;12.93;;
36189;SDS011;22232;50.914;13.858;2023-02-14T07:53:33;21.45;;;11.85;;
36189;SDS011;22232;50.914;13.858;2023-02-14T07:56:00;20.38;;;12.18;;
36189;SDS011;22232;50.914;13.858;2023-02-14T07:58:28;23.95;;;12.68;;
36189;SDS011;22232;50.914;13.858;2023-02-14T08:00:55;23.13;;;11.70;;
36189;SDS011;22232;50.914;13.858;2023-02-14T08:03:23;20.38;;;11.73;;
36189;SDS011;22232;50.914;13.858;2023-02-14T08:05:51;20.48;;;11.27;;
36189;SDS011;22232;50.914;13.858;2023-02-14T08:08:25;22.15;;;11.77;;
36189;SDS011;22232;50.914;13.858;2023-02-14T08:10:55;20.58;;;11.25;;
36189;SDS011;22232;50.914;13.858;2023-02-14T08:13:22;22.05;;;11.20;;
36189;SDS011;22232;50.914;13.858;2023-02-14T08:15:50;19.40;;;11.02;;
36189;SDS011;22232;50.914;13.858;2023-02-14T08:18:38;22.35;;;11.65;;
36189;SDS011;22232;50.914;13.858;2023-02-14T08:21:08;20.15;;;11.10;;
36189;SDS011;22232;50.914;13.858;2023-02-14T08:23:37;21.58;;;11.52;;
36189;SDS011;22232;50.914;13.858;2023-02-14T08:26:05;20.10;;;11.07;;
36189;SDS011;22232;50.914;13.858;2023-02-14T08:28:32;23.55;;;11.70;;
36189;SDS011;22232;50.914;13.858;2023-02-14T08:31:01;19.15;;;10.45;;
36189;SDS011;22232;50.914;13.858;2023-02-14T08:33:30;18.20;;;10.20;;
36189;SDS011;22232;50.914;13.858;2023-02-14T08:35:58;18.65;;;10.82;;
36189;SDS011;22232;50.914;13.858;2023-02-14T08:38:26;20.70;;;10.50;;
36189;SDS011;22232;50.914;13.858;2023-02-14T08:40:57;20.38;;;10.70;;
36189;SDS011;22232;50.914;13.858;2023-02-14T08:43:26;18.83;;;11.23;;
36189;SDS011;22232;50.914;13.858;2023-02-14T08:45:53;19.05;;;10.25;;
36189;SDS011;22232;50.914;13.858;2023-02-14T08:48:21;18.67;;;10.73;;
36189;SDS011;22232;50.914;13.858;2023-02-14T08:50:49;20.23;;;10.57;;
36189;SDS011;22232;50.914;13.858;2023-02-14T08:53:17;17.25;;;10.10;;
36189;SDS011;22232;50.914;13.858;2023-02-14T08:55:44;19.17;;;10.48;;
36189;SDS011;22232;50.914;13.858;2023-02-14T08:58:12;17.27;;;10.38;;
36189;SDS011;22232;50.914;13.858;2023-02-14T09:00:39;24.15;;;11.90;;
36189;SDS011;22232;50.914;13.858;2023-02-14T09:03:07;19.60;;;10.77;;
36189;SDS011;22232;50.914;13.858;2023-02-14T09:05:36;22.20;;;11.43;;
36189;SDS011;22232;50.914;13.858;2023-02-14T09:08:04;22.05;;;11.73;;
36189;SDS011;22232;50.914;13.858;2023-02-14T09:10:34;22.38;;;10.93;;
36189;SDS011;22232;50.914;13.858;2023-02-14T09:13:02;20.67;;;11.25;;
36189;SDS011;22232;50.914;13.858;2023-02-14T09:15:30;21.98;;;12.52;;
36189;SDS011;22232;50.914;13.858;2023-02-14T09:17:57;26.02;;;12.23;;
36189;SDS011;22232;50.914;13.858;2023-02-14T09:20:25;22.20;;;12.13;;
36189;SDS011;22232;50.914;13.858;2023-02-14T09:22:56;20.10;;;11.65;;
36189;SDS011;22232;50.914;13.858;2023-02-14T09:25:23;22.10;;;12.10;;
36189;SDS011;22232;50.914;13.858;2023-02-14T09:27:50;20.33;;;11.75;;
36189;SDS011;22232;50.914;13.858;2023-02-14T09:30:18;18.70;;;10.93;;
36189;SDS011;22232;50.914;13.858;2023-02-14T09:32:46;22.90;;;11.85;;
36189;SDS011;22232;50.914;13.858;2023-02-14T09:35:13;22.55;;;12.82;;
36189;SDS011;22232;50.914;13.858;2023-02-14T09:37:59;26.00;;;11.25;;
36189;SDS011;22232;50.914;13.858;2023-02-14T09:40:27;21.35;;;11.52;;
36189;SDS011;22232;50.914;13.858;2023-02-14T09:48:22;18.67;;;10.55;;
36189;SDS011;22232;50.914;13.858;2023-02-14T09:51:19;23.15;;;11.80;;
36189;SDS011;22232;50.914;13.858;2023-02-14T10:04:57;18.48;;;10.63;;
36189;SDS011;22232;50.914;13.858;2023-02-14T10:15:40;21.75;;;11.40;;
36189;SDS011;22232;50.914;13.858;2023-02-14T10:20:50;21.65;;;11.00;;
36189;SDS011;22232;50.914;13.858;2023-02-14T10:23:34;19.50;;;10.40;;
36189;SDS011;22232;50.914;13.858;2023-02-14T10:26:08;18.15;;;10.90;;
36189;SDS011;22232;50.914;13.858;2023-02-14T10:28:41;17.92;;;10.70;;
36189;SDS011;22232;50.914;13.858;2023-02-14T10:33:43;19.20;;;11.18;;
36189;SDS011;22232;50.914;13.858;2023-02-14T10:48:02;20.35;;;11.27;;
36189;SDS011;22232;50.914;13.858;2023-02-14T10:51:20;19.08;;;11.25;;
36189;SDS011;22232;50.914;13.858;2023-02-14T11:00:01;21.30;;;11.35;;
36189;SDS011;22232;50.914;13.858;2023-02-14T11:02:33;15.60;;;9.50;;
36189;SDS011;22232;50.914;13.858;2023-02-14T11:05:06;18.92;;;11.82;;
36189;SDS011;22232;50.914;13.858;2023-02-14T11:07:43;18.20;;;10.68;;
36189;SDS011;22232;50.914;13.858;2023-02-14T11:10:11;22.77;;;12.48;;
36189;SDS011;22232;50.914;13.858;2023-02-14T11:12:40;19.65;;;12.57;;
36189;SDS011;22232;50.914;13.858;2023-02-14T11:17:41;20.20;;;10.80;;
36189;SDS011;22232;50.914;13.858;2023-02-14T11:22:46;19.42;;;11.82;;
36189;SDS011;22232;50.914;13.858;2023-02-14T11:25:31;23.10;;;13.07;;
36189;SDS011;22232;50.914;13.858;2023-02-14T11:28:02;21.30;;;12.60;;
36189;SDS011;22232;50.914;13.858;2023-02-14T11:30:37;23.27;;;12.77;;
36189;SDS011;22232;50.914;13.858;2023-02-14T11:33:11;24.30;;;13.15;;
36189;SDS011;22232;50.914;13.858;2023-02-14T11:35:51;21.25;;;12.63;;
36189;SDS011;22232;50.914;13.858;2023-02-14T11:38:24;25.33;;;14.23;;
36189;SDS011;22232;50.914;13.858;2023-02-14T11:40:56;25.73;;;14.25;;
36189;SDS011;22232;50.914;13.858;2023-02-14T11:43:39;29.75;;;15.68;;
36189;SDS011;22232;50.914;13.858;2023-02-14T11:48:59;25.42;;;15.02;;
36189;SDS011;22232;50.914;13.858;2023-02-14T11:51:33;27.00;;;15.05;;
36189;SDS011;22232;50.914;13.858;2023-02-14T11:54:05;24.00;;;13.63;;
36189;SDS011;22232;50.914;13.858;2023-02-14T11:56:43;25.52;;;14.25;;
36189;SDS011;22232;50.914;13.858;2023-02-14T12:04:54;26.52;;;15.18;;
36189;SDS011;22232;50.914;13.858;2023-02-14T12:10:08;23.77;;;13.93;;
36189;SDS011;22232;50.914;13.858;2023-02-14T12:13:27;23.20;;;14.02;;
36189;SDS011;22232;50.914;13.858;2023-02-14T12:15:53;20.42;;;11.98;;
36189;SDS011;22232;50.914;13.858;2023-02-14T12:29:37;17.10;;;9.52;;
36189;SDS011;22232;50.914;13.858;2023-02-14T12:34:46;16.35;;;10.00;;
36189;SDS011;22232;50.914;13.858;2023-02-14T12:39:59;15.70;;;9.63;;
36189;SDS011;22232;50.914;13.858;2023-02-14T12:42:53;14.65;;;8.45;;
36189;SDS011;22232;50.914;13.858;2023-02-14T12:50:48;18.48;;;9.93;;
36189;SDS011;22232;50.914;13.858;2023-02-14T12:53:33;19.45;;;10.95;;
36189;SDS011;22232;50.914;13.858;2023-02-14T12:59:04;19.38;;;10.77;;
36189;SDS011;22232;50.914;13.858;2023-02-14T13:02:18;25.17;;;14.25;;
36189;SDS011;22232;50.914;13.858;2023-02-14T13:07:47;31.60;;;16.27;;
36189;SDS011;22232;50.914;13.858;2023-02-14T13:10:21;27.83;;;15.77;;
36189;SDS011;22232;50.914;13.858;2023-02-14T13:13:21;33.83;;;18.95;;
36189;SDS011;22232;50.914;13.858;2023-02-14T13:16:12;40.55;;;20.20;;
36189;SDS011;22232;50.914;13.858;2023-02-14T13:21:25;36.88;;;19.60;;
36189;SDS011;22232;50.914;13.858;2023-02-14T13:24:10;42.42;;;21.83;;
36189;SDS011;22232;50.914;13.858;2023-02-14T13:26:40;40.38;;;21.30;;
36189;SDS011;22232;50.914;13.858;2023-02-14T13:29:18;33.17;;;18.08;;
36189;SDS011;22232;50.914;13.858;2023-02-14T13:31:50;37.53;;;19.65;;
36189;SDS011;22232;50.914;13.858;2023-02-14T13:42:00;33.35;;;18.67;;
36189;SDS011;22232;50.914;13.858;2023-02-14T13:47:05;33.28;;;17.88;;
36189;SDS011;22232;50.914;13.858;2023-02-14T13:49:45;29.38;;;17.55;;
36189;SDS011;22232;50.914;13.858;2023-02-14T13:52:37;31.60;;;17.52;;
36189;SDS011;22232;50.914;13.858;2023-02-14T13:55:22;34.88;;;19.05;;
36189;SDS011;22232;50.914;13.858;2023-02-14T13:57:59;33.47;;;17.55;;
36189;SDS011;22232;50.914;13.858;2023-02-14T14:03:14;40.47;;;19.48;;
36189;SDS011;22232;50.914;13.858;2023-02-14T14:11:12;38.67;;;20.75;;
36189;SDS011;22232;50.914;13.858;2023-02-14T14:14:02;35.80;;;19.48;;
36189;SDS011;22232;50.914;13.858;2023-02-14T14:16:57;39.92;;;19.90;;
36189;SDS011;22232;50.914;13.858;2023-02-14T14:22:00;38.30;;;20.52;;
36189;SDS011;22232;50.914;13.858;2023-02-14T14:24:33;40.15;;;21.80;;
36189;SDS011;22232;50.914;13.858;2023-02-14T14:29:53;39.10;;;21.42;;
36189;SDS011;22232;50.914;13.858;2023-02-14T14:34:57;42.17;;;23.30;;
36189;SDS011;22232;50.914;13.858;2023-02-14T14:37:33;45.83;;;23.40;;
36189;SDS011;22232;50.914;13.858;2023-02-14T14:40:04;39.67;;;21.95;;
36189;SDS011;22232;50.914;13.858;2023-02-14T14:42:38;44.45;;;21.80;;
36189;SDS011;22232;50.914;13.858;2023-02-14T14:45:07;45.33;;;23.83;;
36189;SDS011;22232;50.914;13.858;2023-02-14T14:47:47;40.22;;;21.52;;
36189;SDS011;22232;50.914;13.858;2023-02-14T14:50:26;46.47;;;22.60;;
36189;SDS011;22232;50.914;13.858;2023-02-14T14:53:06;42.85;;;21.85;;
36189;SDS011;22232;50.914;13.858;2023-02-14T14:55:42;43.65;;;22.67;;
36189;SDS011;22232;50.914;13.858;2023-02-14T15:01:00;43.03;;;21.48;;
36189;SDS011;22232;50.914;13.858;2023-02-14T15:03:28;42.17;;;22.40;;
36189;SDS011;22232;50.914;13.858;2023-02-14T15:06:06;40.13;;;22.27;;
36189;SDS011;22232;50.914;13.858;2023-02-14T15:08:34;45.60;;;23.65;;
36189;SDS011;22232;50.914;13.858;2023-02-14T15:11:09;44.55;;;23.70;;
36189;SDS011;22232;50.914;13.858;2023-02-14T15:14:04;43.92;;;23.45;;
36189;SDS011;22232;50.914;13.858;2023-02-14T15:19:22;51.50;;;26.65;;
36189;SDS011;22232;50.914;13.858;2023-02-14T15:22:01;49.15;;;25.92;;
36189;SDS011;22232;50.914;13.858;2023-02-14T15:24:32;53.83;;;28.67;;
36189;SDS011;22232;50.914;13.858;2023-02-14T15:27:03;53.67;;;27.45;;
36189;SDS011;22232;50.914;13.858;2023-02-14T15:29:31;55.67;;;29.15;;
36189;SDS011;22232;50.914;13.858;2023-02-14T15:31:59;54.63;;;28.23;;
36189;SDS011;22232;50.914;13.858;2023-02-14T15:34:31;54.25;;;28.15;;
36189;SDS011;22232;50.914;13.858;2023-02-14T15:37:02;54.63;;;29.33;;
36189;SDS011;22232;50.914;13.858;2023-02-14T15:39:34;55.60;;;28.70;;
36189;SDS011;22232;50.914;13.858;2023-02-14T15:42:04;58.00;;;28.67;;
36189;SDS011;22232;50.914;13.858;2023-02-14T15:44:32;55.67;;;28.58;;
36189;SDS011;22232;50.914;13.858;2023-02-14T15:47:00;55.40;;;28.63;;
36189;SDS011;22232;50.914;13.858;2023-02-14T15:49:33;55.75;;;27.98;;
36189;SDS011;22232;50.914;13.858;2023-02-14T15:52:04;57.08;;;28.23;;
36189;SDS011;22232;50.914;13.858;2023-02-14T15:54:40;57.17;;;28.52;;
36189;SDS011;22232;50.914;13.858;2023-02-14T15:57:22;58.78;;;28.67;;
36189;SDS011;22232;50.914;13.858;2023-02-14T15:59:52;61.72;;;28.88;;
36189;SDS011;22232;50.914;13.858;2023-02-14T16:02:31;64.57;;;29.25;;
36189;SDS011;22232;50.914;13.858;2023-02-14T16:05:17;62.60;;;29.30;;
36189;SDS011;22232;50.914;13.858;2023-02-14T16:10:36;53.22;;;27.05;;
36189;SDS011;22232;50.914;13.858;2023-02-14T16:15:36;54.75;;;28.02;;
36189;SDS011;22232;50.914;13.858;2023-02-14T16:18:15;53.33;;;27.10;;
36189;SDS011;22232;50.914;13.858;2023-02-14T16:20:44;55.35;;;27.13;;
36189;SDS011;22232;50.914;13.858;2023-02-14T16:23:18;59.47;;;28.45;;
36189;SDS011;22232;50.914;13.858;2023-02-14T16:25:54;53.75;;;28.58;;
36189;SDS011;22232;50.914;13.858;2023-02-14T16:28:26;54.58;;;26.50;;
36189;SDS011;22232;50.914;13.858;2023-02-14T16:30:55;55.72;;;28.58;;
36189;SDS011;22232;50.914;13.858;2023-02-14T16:33:25;58.42;;;27.88;;
36189;SDS011;22232;50.914;13.858;2023-02-14T16:35:56;60.92;;;29.63;;
36189;SDS011;22232;50.914;13.858;2023-02-14T16:38:39;59.83;;;29.65;;
36189;SDS011;22232;50.914;13.858;2023-02-14T16:41:13;64.65;;;31.35;;
36189;SDS011;22232;50.914;13.858;2023-02-14T16:43:46;65.15;;;31.30;;
36189;SDS011;22232;50.914;13.858;2023-02-14T16:46:16;63.45;;;30.45;;
36189;SDS011;22232;50.914;13.858;2023-02-14T16:48:46;69.72;;;32.92;;
36189;SDS011;22232;50.914;13.858;2023-02-14T16:51:19;69.90;;;33.15;;
36189;SDS011;22232;50.914;13.858;2023-02-14T16:53:49;64.68;;;31.13;;
36189;SDS011;22232;50.914;13.858;2023-02-14T16:56:19;64.28;;;30.70;;
36189;SDS011;22232;50.914;13.858;2023-02-14T16:58:51;68.63;;;32.53;;
36189;SDS011;22232;50.914;13.858;2023-02-14T17:01:18;67.30;;;32.80;;
36189;SDS011;22232;50.914;13.858;2023-02-14T17:03:46;63.80;;;30.60;;
36189;SDS011;22232;50.914;13.858;2023-02-14T17:06:14;62.35;;;30.65;;
36189;SDS011;22232;50.914;13.858;2023-02-14T17:08:45;58.60;;;28.65;;
36189;SDS011;22232;50.914;13.858;2023-02-14T17:11:14;56.55;;;28.02;;
36189;SDS011;22232;50.914;13.858;2023-02-14T17:13:42;57.08;;;27.83;;
36189;SDS011;22232;50.914;13.858;2023-02-14T17:16:12;65.85;;;34.95;;
36189;SDS011;22232;50.914;13.858;2023-02-14T17:18:44;55.88;;;30.77;;
36189;SDS011;22232;50.914;13.858;2023-02-14T17:21:15;55.33;;;28.42;;
36189;SDS011;22232;50.914;13.858;2023-02-14T17:23:45;49.92;;;25.40;;
36189;SDS011;22232;50.914;13.858;2023-02-14T17:26:13;52.63;;;25.02;;
36189;SDS011;22232;50.914;13.858;2023-02-14T17:28:47;50.60;;;24.80;;
36189;SDS011;22232;50.914;13.858;2023-02-14T17:31:14;53.92;;;25.60;;
36189;SDS011;22232;50.914;13.858;2023-02-14T17:33:42;50.95;;;24.90;;
36189;SDS011;22232;50.914;13.858;2023-02-14T17:36:10;51.05;;;24.13;;
36189;SDS011;22232;50.914;13.858;2023-02-14T17:38:39;46.45;;;22.75;;
36189;SDS011;22232;50.914;13.858;2023-02-14T17:41:19;47.63;;;23.13;;
36189;SDS011;22232;50.914;13.858;2023-02-14T17:43:49;47.05;;;24.17;;
36189;SDS011;22232;50.914;13.858;2023-02-14T17:46:19;54.20;;;24.08;;
36189;SDS011;22232;50.914;13.858;2023-02-14T17:48:47;46.20;;;23.52;;
36189;SDS011;22232;50.914;13.858;2023-02-14T17:51:15;47.97;;;23.95;;
36189;SDS011;22232;50.914;13.858;2023-02-14T17:53:44;49.85;;;25.13;;
36189;SDS011;22232;50.914;13.858;2023-02-14T17:56:13;45.97;;;22.20;;